Time;durP1;ratioP1;P1;durP2;ratioP2;P2;SDS_P1;SDS_P2;PMS_P1;PMS_P2;Temp;Humidity;BMP_temperature;BMP_pressure;BME280_temperature;BME280_humidity;BME280_pressure;Samples;Min_cycle;Max_cycle;Signal;HPM_P1;HPM_P2
2022/08/17 00:02:18;;;;;;;;;;;;;;;24.59;52.51;100867.78;5031182;28;19925;-51
2022/08/17 00:04:43;;;;;;;;;;;;;;;24.58;52.59;100868.78;5028587;28;19963;-51
2022/08/17 00:07:09;;;;;;;;;;;;;;;24.55;52.85;100866.44;5031627;28;20071;-54
2022/08/17 00:09:34;;;;;;;;;;;;;;;24.53;52.69;100865.78;5030959;28;19925;-53
2022/08/17 00:12:00;;;;;;;;;;;;;;;24.50;52.51;100866.97;5026206;28;20529;-53
2022/08/17 00:14:25;;;;;;;;;;;;;;;24.44;52.59;100863.16;5036581;28;19925;-53
2022/08/17 00:16:52;;;;;;;;;;;;;;;24.41;52.57;100868.06;5028255;28;19991;-53
2022/08/17 00:19:21;;;;;;;;;;;;;;;24.40;52.66;100866.38;5022684;28;19936;-52
2022/08/17 00:21:47;;;;;;;;;;;;;;;24.39;52.60;100860.16;5029075;28;19928;-53
2022/08/17 00:24:13;;;;;;;;;;;;;;;24.38;52.79;100868.41;5029370;28;19950;-53
2022/08/17 00:26:38;;;;;;;;;;;;;;;24.34;52.58;100862.56;5031083;28;19933;-51
2022/08/17 00:29:04;;;;;;;;;;;;;;;24.32;52.71;100860.03;5025054;28;19929;-54
2022/08/17 00:31:30;;;;;;;;;;;;;;;24.30;52.82;100863.91;5032967;28;19974;-52
2022/08/17 00:33:55;;;;;;;;;;;;;;;24.26;52.77;100866.13;5027204;28;19929;-51
2022/08/17 00:36:22;;;;;;;;;;;;;;;24.24;52.85;100860.09;5025345;28;19971;-53
2022/08/17 00:38:48;;;;;;;;;;;;;;;24.22;53.04;100869.31;5028415;28;19921;-53
2022/08/17 00:41:15;;;;;;;;;;;;;;;24.19;52.95;100865.13;5029828;28;19931;-53
2022/08/17 00:43:44;;;;;;;;;;;;;;;24.15;53.08;100859.28;5028824;28;19932;-54
2022/08/17 00:46:12;;;;;;;;;;;;;;;24.12;53.36;100856.94;5027989;28;19979;-52
2022/08/17 00:48:38;;;;;;;;;;;;;;;24.10;53.42;100856.28;5042804;28;19921;-51
2022/08/17 00:51:07;;;;;;;;;;;;;;;24.09;53.55;100859.97;5029578;28;19925;-52
2022/08/17 00:53:34;;;;;;;;;;;;;;;24.09;53.64;100867.22;5030657;28;20047;-51
2022/08/17 00:56:01;;;;;;;;;;;;;;;24.06;53.71;100865.69;5031421;28;21830;-54
2022/08/17 00:58:27;;;;;;;;;;;;;;;23.99;53.64;100870.94;5030114;28;19925;-53
2022/08/17 01:00:52;;;;;;;;;;;;;;;23.86;53.99;100873.31;5035478;28;19928;-55
2022/08/17 01:03:26;;;;;;;;;;;;;;;23.78;54.44;100868.78;5034139;28;20011;-52
2022/08/17 01:05:53;;;;;;;;;;;;;;;23.77;54.55;100866.28;5026145;28;19932;-51
2022/08/17 01:08:21;;;;;;;;;;;;;;;23.77;54.35;100866.28;5040613;28;19924;-52
2022/08/17 01:10:48;;;;;;;;;;;;;;;23.76;54.29;100873.50;5031951;28;21731;-51
2022/08/17 01:13:13;;;;;;;;;;;;;;;23.67;54.32;100867.31;5023806;28;20455;-52
2022/08/17 01:15:41;;;;;;;;;;;;;;;23.60;54.49;100869.03;5051070;28;19917;-51
2022/08/17 01:18:08;;;;;;;;;;;;;;;23.59;54.61;100870.03;5027976;28;20029;-53
2022/08/17 01:20:33;;;;;;;;;;;;;;;23.57;54.42;100872.03;5040367;28;19937;-51
2022/08/17 01:22:59;;;;;;;;;;;;;;;23.54;54.54;100873.22;5037573;28;19924;-52
2022/08/17 01:25:26;;;;;;;;;;;;;;;23.52;54.61;100879.78;5029360;28;20451;-52
2022/08/17 01:27:51;;;;;;;;;;;;;;;23.46;54.66;100881.28;5027460;28;20419;-52
2022/08/17 01:30:17;;;;;;;;;;;;;;;23.43;54.26;100877.09;5028762;28;20628;-51
2022/08/17 01:32:42;;;;;;;;;;;;;;;23.37;54.46;100874.25;5023655;28;19935;-51
2022/08/17 01:35:08;;;;;;;;;;;;;;;23.35;54.48;100874.44;5039759;28;20330;-51
2022/08/17 01:37:35;;;;;;;;;;;;;;;23.33;54.51;100876.47;5025285;28;19999;-51
2022/08/17 01:40:19;;;;;;;;;;;;;;;23.30;54.67;100876.78;5033954;28;19932;-51
2022/08/17 01:42:50;;;;;;;;;;;;;;;23.27;54.73;100882.50;5027528;28;20947;-55
2022/08/17 01:45:18;;;;;;;;;;;;;;;23.27;54.76;100885.16;5027409;28;21585;-51
2022/08/17 01:47:43;;;;;;;;;;;;;;;23.28;54.87;100884.16;5036664;28;19929;-54
2022/08/17 01:50:10;;;;;;;;;;;;;;;23.28;54.88;100879.66;5038151;28;19979;-51
2022/08/17 01:52:36;;;;;;;;;;;;;;;23.32;54.81;100892.72;5036690;28;20796;-56
2022/08/17 01:55:02;;;;;;;;;;;;;;;23.34;54.75;100888.88;5027022;28;19947;-51
2022/08/17 01:57:28;;;;;;;;;;;;;;;23.36;54.64;100891.38;5030897;28;20039;-55
2022/08/17 01:59:53;;;;;;;;;;;;;;;23.35;54.74;100890.56;5025981;28;19924;-52
2022/08/17 02:02:19;;;;;;;;;;;;;;;23.35;54.81;100893.22;5032176;28;20000;-52
2022/08/17 02:04:44;;;;;;;;;;;;;;;23.35;54.83;100885.19;5037362;28;19928;-53
2022/08/17 02:07:10;;;;;;;;;;;;;;;23.37;55.04;100893.06;5035812;28;20374;-52
2022/08/17 02:09:35;;;;;;;;;;;;;;;23.36;55.00;100892.22;5029650;28;20343;-51
2022/08/17 02:12:03;;;;;;;;;;;;;;;23.38;54.96;100890.19;5029740;28;19932;-51
2022/08/17 02:14:29;;;;;;;;;;;;;;;23.38;54.96;100887.50;5022433;28;19952;-53
2022/08/17 02:16:54;;;;;;;;;;;;;;;23.38;55.01;100889.38;5035716;28;19921;-51
2022/08/17 02:19:20;;;;;;;;;;;;;;;23.37;55.04;100885.81;5029938;28;19924;-52
2022/08/17 02:21:47;;;;;;;;;;;;;;;23.37;55.05;100880.47;5026989;28;19975;-52
2022/08/17 02:24:16;;;;;;;;;;;;;;;23.37;55.30;100882.31;5023571;28;19925;-51
2022/08/17 02:26:41;;;;;;;;;;;;;;;23.39;55.05;100885.66;5033463;28;20384;-54
2022/08/17 02:29:06;;;;;;;;;;;;;;;23.38;54.99;100884.81;5028740;28;20000;-53
2022/08/17 02:31:32;;;;;;;;;;;;;;;23.37;54.90;100883.13;5028780;28;19929;-51
2022/08/17 02:33:57;;;;;;;;;;;;;;;23.36;55.15;100880.63;5028461;28;19924;-51
2022/08/17 02:36:22;;;;;;;;;;;;;;;23.34;54.89;100878.13;5025085;28;19932;-51
2022/08/17 02:38:49;;;;;;;;;;;;;;;23.33;54.92;100881.81;5025961;28;20065;-53
2022/08/17 02:41:14;;;;;;;;;;;;;;;23.30;55.28;100882.16;5025709;28;20012;-51
2022/08/17 02:43:39;;;;;;;;;;;;;;;23.28;55.03;100881.47;5026467;28;19935;-52
2022/08/17 02:46:05;;;;;;;;;;;;;;;23.26;55.17;100881.66;5028332;28;20273;-52
2022/08/17 02:48:30;;;;;;;;;;;;;;;23.24;55.21;100880.13;5030696;28;19935;-55
2022/08/17 02:50:55;;;;;;;;;;;;;;;23.21;55.27;100881.31;5029990;28;19924;-51
2022/08/17 02:53:21;;;;;;;;;;;;;;;23.18;55.27;100886.16;5028695;28;19928;-51
2022/08/17 02:55:46;;;;;;;;;;;;;;;23.19;55.27;100890.53;5034283;28;19928;-54
2022/08/17 02:58:12;;;;;;;;;;;;;;;23.17;55.39;100892.53;5030575;28;19948;-52
2022/08/17 03:00:41;;;;;;;;;;;;;;;23.14;55.26;100893.72;5028314;28;19925;-52
2022/08/17 03:03:07;;;;;;;;;;;;;;;23.12;55.35;100890.34;5033678;28;19968;-54
2022/08/17 03:05:34;;;;;;;;;;;;;;;23.11;55.47;100897.56;5015644;28;20494;-52
2022/08/17 03:07:59;;;;;;;;;;;;;;;23.10;55.23;100903.09;5031380;28;19952;-52
2022/08/17 03:10:25;;;;;;;;;;;;;;;23.08;55.63;100903.25;5020271;28;20303;-52
2022/08/17 03:12:51;;;;;;;;;;;;;;;23.05;55.79;100897.38;5022231;28;19929;-52
2022/08/17 03:15:18;;;;;;;;;;;;;;;23.05;55.67;100900.94;5034332;28;19921;-51
2022/08/17 03:17:44;;;;;;;;;;;;;;;23.03;55.53;100897.56;5031038;28;19928;-53
2022/08/17 03:20:09;;;;;;;;;;;;;;;23.01;55.74;100902.25;5025399;28;20299;-51
2022/08/17 03:22:36;;;;;;;;;;;;;;;23.00;55.97;100900.59;5026834;28;20053;-52
2022/08/17 03:25:02;;;;;;;;;;;;;;;22.99;55.84;100897.03;5034118;28;20401;-52
2022/08/17 03:27:28;;;;;;;;;;;;;;;22.99;56.27;100901.59;5028577;28;19923;-52
2022/08/17 03:29:53;;;;;;;;;;;;;;;22.95;56.02;100895.72;5031173;28;20385;-52
2022/08/17 03:32:19;;;;;;;;;;;;;;;22.93;56.23;100886.13;5026166;28;19994;-55
2022/08/17 03:34:45;;;;;;;;;;;;;;;22.89;56.38;100890.19;5019513;28;19924;-54
2022/08/17 03:37:11;;;;;;;;;;;;;;;22.88;56.30;100885.81;5032189;28;19955;-51
2022/08/17 03:39:36;;;;;;;;;;;;;;;22.87;56.24;100884.13;5027499;28;19925;-52
2022/08/17 03:42:22;;;;;;;;;;;;;;;22.87;56.46;100887.66;5024792;28;19936;-51
2022/08/17 03:44:48;;;;;;;;;;;;;;;22.89;56.38;100890.19;5027046;28;20062;-52
2022/08/17 03:58:09;;;;;;;;;;;;;;;22.86;56.62;100885.16;5031789;28;19936;-51
2022/08/17 04:00:35;;;;;;;;;;;;;;;22.88;56.62;100888.50;5027368;28;19924;-53
2022/08/17 04:03:01;;;;;;;;;;;;;;;22.88;56.56;100886.66;5027809;28;19924;-51
2022/08/17 04:05:26;;;;;;;;;;;;;;;22.90;56.58;100881.13;5035269;28;20486;-51
2022/08/17 04:07:52;;;;;;;;;;;;;;;22.91;56.60;100878.28;5033689;28;19928;-54
2022/08/17 04:10:17;;;;;;;;;;;;;;;22.93;56.73;100876.25;5030362;28;19925;-52
2022/08/17 04:12:45;;;;;;;;;;;;;;;22.94;56.53;100880.63;5025414;28;20011;-51
2022/08/17 04:15:11;;;;;;;;;;;;;;;22.95;56.46;100890.34;5026114;28;20300;-51
2022/08/17 04:17:37;;;;;;;;;;;;;;;22.98;56.56;100889.16;5022322;28;19960;-51
2022/08/17 04:20:03;;;;;;;;;;;;;;;22.99;56.49;100888.16;5029643;28;19921;-55
2022/08/17 04:22:28;;;;;;;;;;;;;;;22.99;56.49;100893.53;5023687;28;20023;-51
2022/08/17 04:24:53;;;;;;;;;;;;;;;23.01;56.42;100896.88;5035737;28;19920;-53
2022/08/17 04:27:19;;;;;;;;;;;;;;;23.01;56.79;100896.88;5031387;28;19920;-51
2022/08/17 04:29:44;;;;;;;;;;;;;;;23.01;56.72;100891.53;5029996;28;20323;-52
2022/08/17 04:32:09;;;;;;;;;;;;;;;23.01;56.75;100894.22;5023857;28;19928;-52
2022/08/17 04:34:35;;;;;;;;;;;;;;;22.98;56.74;100890.03;5036974;28;19929;-51
2022/08/17 04:37:00;;;;;;;;;;;;;;;22.99;56.71;100901.59;5035124;28;20356;-51
2022/08/17 04:39:27;;;;;;;;;;;;;;;23.00;56.66;100911.31;5033182;28;19971;-54
2022/08/17 04:42:15;;;;;;;;;;;;;;;22.99;56.63;100906.94;5024776;28;19925;-52
2022/08/17 04:44:41;;;;;;;;;;;;;;;22.97;56.57;100908.97;5027401;28;20005;-51
2022/08/17 04:47:06;;;;;;;;;;;;;;;22.97;56.96;100909.81;5036433;28;20027;-53
2022/08/17 04:49:32;;;;;;;;;;;;;;;23.00;56.75;100916.69;5028595;28;19925;-51
2022/08/17 04:51:57;;;;;;;;;;;;;;;23.02;56.82;100912.00;5029807;28;20487;-51
2022/08/17 04:54:22;;;;;;;;;;;;;;;23.04;56.73;100915.34;5033872;28;19936;-53
2022/08/17 04:56:48;;;;;;;;;;;;;;;23.07;56.97;100917.69;5039408;28;20396;-51
2022/08/17 04:59:15;;;;;;;;;;;;;;;23.10;56.91;100927.25;5029217;28;19974;-54
2022/08/17 05:01:42;;;;;;;;;;;;;;;23.11;56.90;100929.75;5031695;28;20883;-54
2022/08/17 05:04:11;;;;;;;;;;;;;;;23.13;56.93;100935.81;5024405;28;19921;-53
2022/08/17 05:06:36;;;;;;;;;;;;;;;23.17;56.70;100935.47;5024037;28;19986;-53
2022/08/17 05:09:01;;;;;;;;;;;;;;;23.19;56.96;100933.47;5027338;28;19924;-53
2022/08/17 05:11:27;;;;;;;;;;;;;;;23.17;56.97;100930.13;5034817;28;19927;-53
2022/08/17 05:13:53;;;;;;;;;;;;;;;23.17;57.18;100930.13;5024054;28;19935;-53
2022/08/17 05:16:19;;;;;;;;;;;;;;;23.13;57.08;100935.81;5031796;28;19925;-51
2022/08/17 05:18:45;;;;;;;;;;;;;;;23.14;57.35;100933.97;5027824;28;19924;-53
2022/08/17 05:21:10;;;;;;;;;;;;;;;23.17;57.12;100941.66;5030610;28;19974;-52
2022/08/17 05:23:36;;;;;;;;;;;;;;;23.19;57.12;100942.34;5037266;28;19925;-52
2022/08/17 05:26:01;;;;;;;;;;;;;;;23.20;57.36;100940.53;5030765;28;19935;-52
2022/08/17 05:28:27;;;;;;;;;;;;;;;23.22;57.17;100935.81;5030006;28;20387;-53
2022/08/17 05:30:54;;;;;;;;;;;;;;;23.20;57.30;100941.38;5026597;28;19925;-54
2022/08/17 05:33:24;;;;;;;;;;;;;;;23.20;57.44;100941.38;5023964;28;19943;-53
2022/08/17 05:35:50;;;;;;;;;;;;;;;23.21;57.48;100947.59;5041581;28;19920;-53
2022/08/17 05:38:17;;;;;;;;;;;;;;;23.20;57.41;100952.13;5042633;28;19943;-52
2022/08/17 05:40:42;;;;;;;;;;;;;;;23.20;57.71;100959.31;5040684;28;19925;-53
2022/08/17 05:43:08;;;;;;;;;;;;;;;23.22;57.59;100949.25;5034459;28;20273;-52
2022/08/17 05:45:34;;;;;;;;;;;;;;;23.23;57.41;100954.47;5040772;28;19921;-54
2022/08/17 05:47:59;;;;;;;;;;;;;;;23.24;57.57;100952.59;5042821;28;19925;-53
2022/08/17 05:50:30;;;;;;;;;;;;;;;23.29;57.37;100951.09;5034303;28;19925;-52
2022/08/17 05:52:55;;;;;;;;;;;;;;;23.35;57.45;100959.50;5040914;28;19924;-52
2022/08/17 05:55:39;;;;;;;;;;;;;;;23.35;57.30;100960.34;5035964;28;19924;-53
2022/08/17 05:58:16;;;;;;;;;;;;;;;23.35;57.35;100959.50;5042773;28;19916;-53
2022/08/17 06:01:00;;;;;;;;;;;;;;;23.35;57.47;100963.03;5038115;28;19924;-54
2022/08/17 06:03:48;;;;;;;;;;;;;;;23.33;57.42;100951.63;5036283;28;19918;-53
2022/08/17 06:06:35;;;;;;;;;;;;;;;23.33;57.55;100957.00;5034360;28;19928;-52
2022/08/17 06:09:17;;;;;;;;;;;;;;;23.36;57.54;100967.41;5049628;22;19939;-63
2022/08/17 06:11:50;;;;;;;;;;;;;;;23.40;57.49;100960.66;5046329;28;20018;-63
2022/08/17 06:14:16;;;;;;;;;;;;;;;23.42;57.59;100966.72;5043335;28;19929;-57
2022/08/17 06:16:45;;;;;;;;;;;;;;;23.46;57.64;100966.38;5043164;28;20001;-53
2022/08/17 06:19:17;;;;;;;;;;;;;;;23.51;57.42;100972.09;5028026;28;19928;-56
2022/08/17 06:21:45;;;;;;;;;;;;;;;23.54;57.44;100972.59;5022368;28;20228;-56
2022/08/17 06:24:23;;;;;;;;;;;;;;;23.58;57.63;100971.25;5023504;28;19983;-56
2022/08/17 06:26:49;;;;;;;;;;;;;;;23.64;57.42;100974.25;5021710;28;19983;-55
2022/08/17 06:29:26;;;;;;;;;;;;;;;23.67;57.51;100971.25;5019846;28;20401;-54
2022/08/17 06:31:51;;;;;;;;;;;;;;;23.71;57.50;100976.09;5021204;28;19918;-58
2022/08/17 06:34:19;;;;;;;;;;;;;;;23.75;57.55;100980.13;5023045;28;20056;-60
2022/08/17 06:36:47;;;;;;;;;;;;;;;23.80;57.47;100976.09;5019536;28;19921;-59
2022/08/17 06:39:18;;;;;;;;;;;;;;;23.83;57.51;100975.72;5027714;28;19913;-63
2022/08/17 06:41:50;;;;;;;;;;;;;;;23.85;57.52;100976.41;5019905;28;19925;-55
2022/08/17 06:44:22;;;;;;;;;;;;;;;23.87;57.42;100983.31;5021561;28;20387;-56
2022/08/17 06:46:52;;;;;;;;;;;;;;;23.89;57.40;100989.34;5022943;28;19925;-55
2022/08/17 06:49:24;;;;;;;;;;;;;;;23.93;57.59;100989.00;5022074;28;19925;-57
2022/08/17 06:51:53;;;;;;;;;;;;;;;23.97;57.43;101001.13;5024297;28;20722;-56
2022/08/17 06:54:21;;;;;;;;;;;;;;;24.00;57.43;100998.09;5028513;28;19925;-60
2022/08/17 06:57:02;;;;;;;;;;;;;;;24.02;57.41;100996.06;5023496;28;19920;-57
2022/08/17 06:59:32;;;;;;;;;;;;;;;24.05;57.53;100995.72;5022646;28;20260;-55
2022/08/17 07:02:04;;;;;;;;;;;;;;;24.07;57.39;100996.38;5020850;28;19967;-65
2022/08/17 07:04:30;;;;;;;;;;;;;;;24.11;57.53;100994.22;5019652;28;19947;-60
2022/08/17 07:08:00;;;;;;;;;;;;;;;24.13;57.42;100994.84;5019876;28;19921;-61
2022/08/17 07:09:49;;;;;;;;;;;;;;;24.18;57.41;101003.25;5024922;28;19948;-53
2022/08/17 07:12:18;;;;;;;;;;;;;;;24.23;57.53;101000.91;5017060;28;20403;-59
2022/08/17 07:14:53;;;;;;;;;;;;;;;24.27;57.40;100996.00;5020506;28;19925;-59
2022/08/17 07:17:20;;;;;;;;;;;;;;;24.33;57.63;101000.69;5019962;28;19925;-55
2022/08/17 07:19:47;;;;;;;;;;;;;;;24.38;57.46;101001.00;5022942;28;19976;-56
2022/08/17 07:22:29;;;;;;;;;;;;;;;24.42;57.55;101002.34;5019471;28;19925;-55
2022/08/17 07:24:59;;;;;;;;;;;;;;;24.47;57.45;101009.88;5022791;28;19920;-56
2022/08/17 07:27:36;;;;;;;;;;;;;;;24.53;57.51;101006.50;5005678;28;19968;-56
2022/08/17 07:30:09;;;;;;;;;;;;;;;24.58;57.36;101006.78;5024109;28;19925;-58
2022/08/17 07:32:40;;;;;;;;;;;;;;;24.63;57.37;101001.75;5020995;28;20340;-58
2022/08/17 07:35:11;;;;;;;;;;;;;;;24.68;57.29;101000.38;5024146;28;19947;-55
2022/08/17 07:37:37;;;;;;;;;;;;;;;24.71;57.31;100997.38;5006377;28;19948;-58
2022/08/17 07:40:20;;;;;;;;;;;;;;;24.77;57.49;100997.50;5022065;28;19920;-59
2022/08/17 07:43:03;;;;;;;;;;;;;;;24.83;57.27;101012.09;5021808;28;19925;-56
2022/08/17 07:48:17;;;;;;;;;;;;;;;24.95;56.92;101008.00;5025405;28;19983;-55
2022/08/17 07:50:43;;;;;;;;;;;;;;;25.03;57.05;101006.28;5021176;28;19913;-57
2022/08/17 07:53:19;;;;;;;;;;;;;;;25.10;56.93;101007.22;5023339;28;19940;-57
2022/08/17 07:55:44;;;;;;;;;;;;;;;25.16;56.82;101011.06;5030379;28;20427;-55
2022/08/17 07:58:20;;;;;;;;;;;;;;;25.21;56.90;101009.50;5027034;28;19921;-58
2022/08/17 08:01:01;;;;;;;;;;;;;;;25.26;56.73;101004.44;5023499;28;20304;-59
2022/08/17 08:03:30;;;;;;;;;;;;;;;25.33;56.53;101011.81;5024625;28;19923;-57
2022/08/17 08:05:59;;;;;;;;;;;;;;;25.37;56.44;101010.41;5024678;28;20276;-55
2022/08/17 08:08:41;;;;;;;;;;;;;;;25.40;56.60;101013.59;5027566;28;19978;-55
2022/08/17 08:11:06;;;;;;;;;;;;;;;25.46;56.43;101006.69;5028468;28;19925;-56
2022/08/17 08:13:32;;;;;;;;;;;;;;;25.51;56.36;101006.94;5025727;28;19928;-55
2022/08/17 08:16:18;;;;;;;;;;;;;;;25.56;56.42;101006.44;5032240;28;19935;-56
2022/08/17 08:18:45;;;;;;;;;;;;;;;25.61;56.28;101001.31;5022763;28;20019;-56
2022/08/17 08:21:17;;;;;;;;;;;;;;;25.68;56.17;101010.38;5023676;28;20380;-57
2022/08/17 08:23:51;;;;;;;;;;;;;;;25.73;56.06;101012.50;5023657;28;19975;-54
2022/08/17 08:26:25;;;;;;;;;;;;;;;25.78;55.87;101018.19;5025350;28;19917;-58
2022/08/17 08:28:53;;;;;;;;;;;;;;;25.85;55.97;101015.59;5029016;28;19963;-58
2022/08/17 08:31:34;;;;;;;;;;;;;;;25.91;55.46;101019.41;5022978;28;20359;-56
2022/08/17 08:34:17;;;;;;;;;;;;;;;25.98;55.35;101017.66;5026079;28;19937;-62
2022/08/17 08:37:02;;;;;;;;;;;;;;;26.06;55.46;101019.44;5026308;28;20185;-64
2022/08/17 08:39:28;;;;;;;;;;;;;;;26.12;55.07;101021.44;5025952;28;20384;-60
2022/08/17 08:41:53;;;;;;;;;;;;;;;26.17;55.02;101011.75;5024212;28;19967;-57
2022/08/17 08:44:29;;;;;;;;;;;;;;;26.24;54.82;101019.13;5026692;28;19921;-56
2022/08/17 08:47:03;;;;;;;;;;;;;;;26.30;54.42;101013.81;5026755;28;19997;-58
2022/08/17 08:49:38;;;;;;;;;;;;;;;26.36;54.24;101016.75;5023982;28;19932;-56
2022/08/17 08:52:09;;;;;;;;;;;;;;;26.40;54.33;101023.47;5025507;28;19921;-58
2022/08/17 08:54:43;;;;;;;;;;;;;;;26.44;54.24;101028.31;5029959;28;20394;-53
2022/08/17 08:57:17;;;;;;;;;;;;;;;26.52;53.84;101026.53;5026453;28;19979;-53
2022/08/17 08:59:55;;;;;;;;;;;;;;;26.57;53.76;101029.50;5020149;28;20313;-56
2022/08/17 09:02:39;;;;;;;;;;;;;;;26.61;53.54;101026.25;5026889;28;19921;-56
2022/08/17 09:05:08;;;;;;;;;;;;;;;26.63;53.18;101023.34;5021897;28;20376;-54
2022/08/17 09:07:52;;;;;;;;;;;;;;;26.67;52.95;101021.97;5023747;28;19928;-57
2022/08/17 09:10:26;;;;;;;;;;;;;;;26.71;53.01;101019.72;5022685;28;20048;-55
2022/08/17 09:13:15;;;;;;;;;;;;;;;26.74;52.74;101017.47;5026414;28;20443;-53
2022/08/17 09:16:03;;;;;;;;;;;;;;;26.78;52.54;101024.16;5026725;28;19921;-56
2022/08/17 09:18:34;;;;;;;;;;;;;;;26.86;52.54;101014.31;5028293;28;19971;-57
2022/08/17 09:21:09;;;;;;;;;;;;;;;26.93;51.93;101007.13;5023667;28;19940;-60
2022/08/17 09:23:48;;;;;;;;;;;;;;;26.99;51.76;101017.19;5023278;28;19925;-57
2022/08/17 09:26:22;;;;;;;;;;;;;;;27.03;50.80;101007.66;5028308;28;19924;-53
2022/08/17 09:28:57;;;;;;;;;;;;;;;27.04;50.61;101006.63;5021935;28;19925;-55
2022/08/17 09:31:27;;;;;;;;;;;;;;;27.06;50.60;101001.03;5024997;28;19921;-56
2022/08/17 09:33:57;;;;;;;;;;;;;;;27.07;50.61;100995.44;5024226;28;19929;-55
2022/08/17 09:36:32;;;;;;;;;;;;;;;27.12;50.64;101004.84;5025992;28;20011;-58
2022/08/17 09:39:10;;;;;;;;;;;;;;;27.13;50.61;101003.81;5025402;28;19928;-56
2022/08/17 09:41:48;;;;;;;;;;;;;;;27.17;50.21;101005.06;5024735;28;19929;-61
2022/08/17 09:44:19;;;;;;;;;;;;;;;27.23;50.64;101007.03;5025944;28;19921;-57
2022/08/17 09:47:03;;;;;;;;;;;;;;;27.25;50.67;100999.56;5029051;28;20006;-59
2022/08/17 09:49:30;;;;;;;;;;;;;;;27.28;50.33;101003.72;5026306;28;19932;-53
2022/08/17 09:51:59;;;;;;;;;;;;;;;27.33;50.36;101002.13;5026998;28;20307;-56
2022/08/17 09:54:28;;;;;;;;;;;;;;;27.38;49.87;101005.09;5028383;28;20504;-57
2022/08/17 09:57:02;;;;;;;;;;;;;;;27.42;49.66;101005.53;5025188;28;20012;-59
2022/08/17 09:59:27;;;;;;;;;;;;;;;27.45;49.82;100994.38;5027302;28;20372;-60
2022/08/17 10:01:53;;;;;;;;;;;;;;;27.46;49.75;100995.19;5025847;28;20074;-53
2022/08/17 10:04:37;;;;;;;;;;;;;;;27.49;49.36;100992.09;5025608;28;20007;-56
2022/08/17 10:07:21;;;;;;;;;;;;;;;27.52;49.49;100995.28;5025014;28;19917;-59
2022/08/17 10:09:50;;;;;;;;;;;;;;;27.56;49.08;101001.13;5028697;28;19924;-64
2022/08/17 10:12:15;;;;;;;;;;;;;;;27.60;49.11;101002.41;5028321;28;19912;-56
2022/08/17 10:14:59;;;;;;;;;;;;;;;27.64;49.29;100998.25;5024013;28;19995;-59
2022/08/17 10:17:24;;;;;;;;;;;;;;;27.69;49.08;101003.06;5022903;28;20016;-58
2022/08/17 10:20:01;;;;;;;;;;;;;;;27.73;49.33;100995.44;5025468;28;20011;-59
2022/08/17 10:28:04;;;;;;;;;;;;;;;27.90;48.29;100991.41;5027675;28;20315;-58
2022/08/17 10:30:31;;;;;;;;;;;;;;;27.94;48.38;100984.53;5020528;28;19921;-55
2022/08/17 10:33:00;;;;;;;;;;;;;;;28.00;48.01;100991.03;5020940;28;19960;-57
2022/08/17 10:35:25;;;;;;;;;;;;;;;28.05;47.79;100990.44;5019982;28;20380;-56
2022/08/17 10:38:10;;;;;;;;;;;;;;;28.11;48.02;100993.22;5027228;28;19921;-52
2022/08/17 10:40:49;;;;;;;;;;;;;;;28.18;47.51;100985.16;5020157;28;19921;-59
2022/08/17 10:43:31;;;;;;;;;;;;;;;28.27;46.98;100994.75;5022531;28;19921;-64
2022/08/17 10:46:01;;;;;;;;;;;;;;;28.36;46.63;100991.91;5022990;28;19921;-56
2022/08/17 10:48:29;;;;;;;;;;;;;;;28.42;46.72;100988.38;5022426;28;20431;-59
2022/08/17 10:50:55;;;;;;;;;;;;;;;28.50;46.20;100996.34;5004969;28;20661;-57
2022/08/17 10:53:32;;;;;;;;;;;;;;;28.58;45.89;100988.03;5020332;28;19929;-60
2022/08/17 10:56:12;;;;;;;;;;;;;;;28.67;45.49;100990.53;5025078;28;19917;-57
2022/08/17 10:58:44;;;;;;;;;;;;;;;28.70;45.30;100992.84;5026683;28;20455;-57
2022/08/17 11:01:11;;;;;;;;;;;;;;;28.77;44.97;100996.44;5023507;28;19948;-61
2022/08/17 11:03:46;;;;;;;;;;;;;;;28.86;44.43;100999.81;5022280;28;20392;-64
2022/08/17 11:06:22;;;;;;;;;;;;;;;28.91;44.70;100991.91;5019202;28;19925;-58
2022/08/17 11:08:56;;;;;;;;;;;;;;;28.98;44.46;100997.31;5021206;28;20590;-55
2022/08/17 11:11:39;;;;;;;;;;;;;;;29.09;44.23;100994.03;5021094;28;19929;-65
2022/08/17 11:14:15;;;;;;;;;;;;;;;29.19;43.75;100989.03;5020916;28;19952;-61
2022/08/17 11:16:41;;;;;;;;;;;;;;;29.30;43.19;100984.88;5021034;28;20400;-55
2022/08/17 11:19:25;;;;;;;;;;;;;;;29.40;42.93;100984.50;5022721;28;19974;-56
2022/08/17 11:22:09;;;;;;;;;;;;;;;29.48;42.53;100992.41;5026013;28;20319;-62
2022/08/17 11:24:36;;;;;;;;;;;;;;;29.51;42.50;100991.16;5026921;28;20341;-59
2022/08/17 11:27:04;;;;;;;;;;;;;;;29.53;41.96;100988.25;5022414;28;19921;-62
2022/08/17 11:29:44;;;;;;;;;;;;;;;29.57;41.87;100997.66;5026412;28;20015;-60
2022/08/17 11:32:26;;;;;;;;;;;;;;;29.61;41.65;100997.00;5023279;28;19996;-56
2022/08/17 11:35:04;;;;;;;;;;;;;;;29.64;41.27;100987.63;5020370;28;19929;-56
2022/08/17 11:37:35;;;;;;;;;;;;;;;29.68;41.36;100993.44;5022570;28;19996;-59
2022/08/17 11:40:23;;;;;;;;;;;;;;;29.71;40.54;100993.88;5007154;28;20268;-60
2022/08/17 11:43:07;;;;;;;;;;;;;;;29.67;40.36;100992.63;5023177;28;19924;-62
2022/08/17 11:45:35;;;;;;;;;;;;;;;29.66;40.31;100982.81;5024227;28;20425;-63
2022/08/17 11:53:42;;;;;;;;;;;;;;;29.67;40.21;100976.34;5020596;28;20033;-62
2022/08/17 11:56:08;;;;;;;;;;;;;;;29.67;40.27;100973.66;5018599;28;20465;-60
2022/08/17 11:58:38;;;;;;;;;;;;;;;29.69;40.00;100971.56;5020762;28;19929;-58
2022/08/17 12:01:22;;;;;;;;;;;;;;;29.70;39.78;100967.81;5023679;28;19963;-59
2022/08/17 12:03:55;;;;;;;;;;;;;;;29.74;39.96;100969.03;5022137;28;19946;-59
2022/08/17 12:06:29;;;;;;;;;;;;;;;29.76;40.14;100966.94;5016132;28;19929;-56
2022/08/17 12:09:20;;;;;;;;;;;;;;;29.79;39.55;100955.69;5024353;28;19925;-58
2022/08/17 12:11:49;;;;;;;;;;;;;;;29.84;39.69;100963.19;5021553;28;19978;-62
2022/08/17 12:14:16;;;;;;;;;;;;;;;29.88;39.72;100964.44;5022632;28;19929;-57
2022/08/17 12:16:43;;;;;;;;;;;;;;;29.93;39.33;100969.22;5020381;28;19927;-59
2022/08/17 12:19:15;;;;;;;;;;;;;;;29.98;39.63;100974.88;5023822;28;19931;-62
2022/08/17 12:21:52;;;;;;;;;;;;;;;30.02;38.96;100980.69;5020449;28;19991;-57
2022/08/17 12:24:21;;;;;;;;;;;;;;;30.06;38.90;100966.50;5020576;28;19917;-59
2022/08/17 12:26:51;;;;;;;;;;;;;;;30.08;38.90;100955.44;5023223;28;20591;-59
2022/08/17 12:29:17;;;;;;;;;;;;;;;30.09;38.93;100955.22;5022193;28;20388;-59
2022/08/17 12:31:46;;;;;;;;;;;;;;;30.11;38.64;100953.13;5023580;28;19936;-58
2022/08/17 12:34:19;;;;;;;;;;;;;;;30.15;38.56;100953.53;5021293;28;19921;-58
2022/08/17 12:36:49;;;;;;;;;;;;;;;30.22;38.81;100948.09;5025232;28;19925;-58
2022/08/17 12:39:17;;;;;;;;;;;;;;;30.27;38.29;100953.69;5023521;28;19935;-56
2022/08/17 12:41:45;;;;;;;;;;;;;;;30.34;38.08;100959.09;5025860;28;19924;-59
2022/08/17 12:44:11;;;;;;;;;;;;;;;30.36;37.70;100959.72;5027962;28;19921;-58
2022/08/17 12:46:54;;;;;;;;;;;;;;;30.44;37.64;100961.38;5025620;28;20725;-57
2022/08/17 12:49:41;;;;;;;;;;;;;;;30.53;37.65;100960.06;5018425;28;19967;-56
2022/08/17 12:52:15;;;;;;;;;;;;;;;30.63;37.40;100954.19;5024326;28;20348;-57
2022/08/17 12:54:49;;;;;;;;;;;;;;;30.68;37.00;100944.34;5023858;28;19926;-58
2022/08/17 12:57:19;;;;;;;;;;;;;;;30.71;37.06;100941.19;5011495;28;20193;-58
2022/08/17 12:59:50;;;;;;;;;;;;;;;30.75;36.74;100938.06;5016884;28;19935;-56
2022/08/17 13:02:27;;;;;;;;;;;;;;;30.79;37.06;100936.53;5010320;28;20012;-61
2022/08/17 13:04:55;;;;;;;;;;;;;;;30.89;36.96;100931.47;5006655;28;19921;-59
2022/08/17 13:07:28;;;;;;;;;;;;;;;30.99;37.05;100937.25;5014025;28;19975;-57
2022/08/17 13:09:53;;;;;;;;;;;;;;;31.05;36.73;100940.97;5011187;28;19925;-61
2022/08/17 13:12:29;;;;;;;;;;;;;;;31.06;36.81;100944.53;5008872;28;19925;-59
2022/08/17 13:14:56;;;;;;;;;;;;;;;31.04;36.84;100941.19;5015734;28;20032;-61
2022/08/17 13:17:25;;;;;;;;;;;;;;;31.04;37.05;100938.47;5008204;28;19925;-59